createdAt,value
2022-12-03T00:00:40.645Z,50.58
2022-12-03T00:03:07.751Z,53.70
2022-12-03T00:05:34.878Z,50.88
2022-12-03T00:08:04.236Z,46.53
2022-12-03T00:10:31.434Z,47.97
2022-12-03T00:12:58.364Z,50.40
2022-12-03T00:15:25.311Z,48.53
2022-12-03T00:17:52.265Z,51.58
2022-12-03T00:20:22.761Z,52.35
2022-12-03T00:22:49.879Z,49.22
2022-12-03T00:25:17.573Z,51.28
2022-12-03T00:27:44.531Z,50.85
2022-12-03T00:30:13.255Z,49.95
2022-12-03T00:32:41.804Z,54.03
2022-12-03T00:35:09.093Z,50.50
2022-12-03T00:37:36.047Z,51.40
2022-12-03T00:40:05.536Z,51.22
2022-12-03T00:42:32.480Z,49.10
2022-12-03T00:44:59.443Z,51.10
2022-12-03T00:47:26.391Z,49.63
2022-12-03T00:49:53.269Z,49.28
2022-12-03T00:52:20.720Z,48.55
2022-12-03T00:54:49.173Z,48.90
2022-12-03T00:57:16.411Z,52.13
2022-12-03T00:59:43.347Z,50.05
2022-12-03T01:02:10.494Z,51.28
2022-12-03T01:04:37.630Z,54.28
2022-12-03T01:07:04.968Z,54.13
2022-12-03T01:09:32.102Z,53.47
2022-12-03T01:11:59.428Z,57.17
2022-12-03T01:14:26.514Z,49.72
2022-12-03T01:16:53.466Z,51.08
2022-12-03T01:19:20.517Z,51.90
2022-12-03T01:21:50.952Z,50.80
2022-12-03T01:24:19.341Z,54.90
2022-12-03T01:26:46.315Z,46.17
2022-12-03T01:29:13.787Z,52.75
2022-12-03T01:31:59.249Z,51.20
2022-12-03T01:34:26.319Z,52.50
2022-12-03T01:36:53.270Z,52.80
2022-12-03T01:39:20.353Z,50.88
2022-12-03T01:41:48.908Z,47.55
2022-12-03T01:44:23.192Z,54.28
2022-12-03T01:46:51.832Z,54.88
2022-12-03T01:49:26.135Z,47.22
2022-12-03T01:51:54.456Z,56.63
2022-12-03T01:54:43.089Z,52.15
2022-12-03T01:57:30.332Z,51.22
2022-12-03T01:59:59.097Z,55.35
2022-12-03T02:02:28.929Z,52.92
2022-12-03T02:04:56.973Z,48.75
2022-12-03T02:07:34.361Z,51.17
2022-12-03T02:10:03.882Z,47.35
2022-12-03T02:12:36.904Z,52.50
2022-12-03T02:15:05.578Z,50.58
2022-12-03T02:17:32.627Z,54.75
2022-12-03T02:20:01.781Z,50.55
2022-12-03T02:22:56.372Z,48.58
2022-12-03T02:25:25.931Z,46.65
2022-12-03T02:27:54.718Z,52.83
2022-12-03T02:30:24.432Z,47.30
2022-12-03T02:32:52.560Z,48.72
2022-12-03T02:35:25.426Z,49.28
2022-12-03T02:37:58.727Z,45.13
2022-12-03T02:40:29.291Z,50.97
2022-12-03T02:43:00.359Z,40.92
2022-12-03T02:45:39.411Z,47.63
2022-12-03T02:48:34.827Z,42.67
2022-12-03T02:51:06.156Z,48.30
2022-12-03T02:53:44.455Z,44.83
2022-12-03T02:56:15.341Z,49.08
2022-12-03T02:58:44.847Z,46.95
2022-12-03T03:01:12.280Z,39.40
2022-12-03T03:03:39.682Z,42.55
2022-12-03T03:06:08.242Z,46.17
2022-12-03T03:08:37.020Z,44.88
2022-12-03T03:11:04.438Z,45.05
2022-12-03T03:13:33.837Z,71.10
2022-12-03T03:16:03.410Z,49.58
2022-12-03T03:18:30.558Z,48.28
2022-12-03T03:20:57.479Z,50.10
2022-12-03T03:23:24.871Z,49.17
2022-12-03T03:26:05.916Z,45.13
2022-12-03T03:28:37.450Z,48.70
2022-12-03T03:31:06.678Z,42.60
2022-12-03T03:33:34.608Z,44.17
2022-12-03T03:36:02.207Z,42.05
2022-12-03T03:38:30.299Z,44.58
2022-12-03T03:40:59.813Z,45.55
2022-12-03T03:43:28.069Z,44.00
2022-12-03T03:45:55.669Z,44.80
2022-12-03T03:48:23.201Z,41.30
2022-12-03T03:50:52.076Z,41.80
2022-12-03T03:53:20.150Z,44.78
2022-12-03T03:55:47.328Z,43.47
2022-12-03T03:58:14.411Z,44.75
2022-12-03T04:00:44.903Z,42.67
2022-12-03T04:03:12.713Z,39.72
2022-12-03T04:05:40.111Z,43.63
2022-12-03T04:08:07.188Z,39.25
2022-12-03T04:10:52.688Z,37.33
2022-12-03T04:13:19.653Z,37.45
2022-12-03T04:15:46.581Z,39.65
2022-12-03T04:18:36.606Z,37.97
2022-12-03T04:21:22.320Z,38.67
2022-12-03T04:23:49.323Z,42.17
2022-12-03T04:26:35.001Z,42.42
2022-12-03T04:29:02.077Z,39.72
2022-12-03T04:31:48.146Z,43.65
2022-12-03T04:34:33.827Z,43.00
2022-12-03T04:37:00.776Z,39.65
2022-12-03T04:39:27.724Z,37.28
2022-12-03T04:41:54.742Z,36.17
2022-12-03T04:44:33.613Z,38.00
2022-12-03T04:47:01.834Z,37.85
2022-12-03T04:49:28.810Z,36.17
2022-12-03T04:51:55.790Z,40.45
2022-12-03T04:54:23.032Z,36.15
2022-12-03T04:56:49.989Z,32.13
2022-12-03T04:59:16.928Z,37.83
2022-12-03T05:01:45.471Z,34.63
2022-12-03T05:04:13.325Z,34.22
2022-12-03T05:06:40.807Z,39.20
2022-12-03T05:09:08.122Z,36.78
2022-12-03T05:11:35.257Z,34.17
2022-12-03T05:14:02.300Z,34.50
2022-12-03T05:16:29.478Z,35.55
2022-12-03T05:18:56.750Z,36.70
2022-12-03T05:21:23.986Z,35.67
2022-12-03T05:23:51.170Z,37.88
2022-12-03T05:26:18.361Z,33.47
2022-12-03T05:28:45.303Z,33.55
2022-12-03T05:31:13.098Z,34.80
2022-12-03T05:33:44.264Z,32.95
2022-12-03T05:36:11.987Z,35.20
2022-12-03T05:38:38.954Z,36.67
2022-12-03T05:41:26.094Z,34.05
2022-12-03T05:43:53.110Z,36.85
2022-12-03T05:46:20.179Z,33.03
2022-12-03T05:48:47.515Z,33.15
2022-12-03T05:51:14.714Z,35.30
2022-12-03T05:53:41.743Z,34.17
2022-12-03T05:56:08.756Z,31.15
2022-12-03T05:58:35.823Z,37.05
2022-12-03T06:01:02.833Z,32.67
2022-12-03T06:03:30.428Z,34.15
2022-12-03T06:05:57.593Z,33.75
2022-12-03T06:08:26.390Z,33.85
2022-12-03T06:10:53.282Z,34.80
2022-12-03T06:13:20.323Z,34.83
2022-12-03T06:15:47.377Z,31.80
2022-12-03T06:18:14.419Z,34.58
2022-12-03T06:20:41.518Z,31.90
2022-12-03T06:23:08.502Z,35.08
2022-12-03T06:25:35.407Z,34.35
2022-12-03T06:28:02.387Z,33.50
2022-12-03T06:30:29.289Z,31.10
2022-12-03T06:32:57.921Z,36.70
2022-12-03T06:35:25.105Z,37.63
2022-12-03T06:37:52.590Z,35.42
2022-12-03T06:40:19.822Z,37.28
2022-12-03T06:42:46.804Z,33.22
2022-12-03T06:45:13.853Z,33.42
2022-12-03T06:47:40.872Z,32.08
2022-12-03T06:50:09.230Z,33.95
2022-12-03T06:52:36.275Z,36.33
2022-12-03T06:55:03.344Z,39.13
2022-12-03T06:57:30.552Z,36.40
2022-12-03T06:59:57.562Z,36.92
2022-12-03T07:02:24.607Z,37.67
2022-12-03T07:04:51.606Z,38.83
2022-12-03T07:07:18.530Z,37.75
2022-12-03T07:09:45.449Z,33.75
2022-12-03T07:12:12.446Z,49.35
2022-12-03T07:14:39.358Z,35.78
2022-12-03T07:17:06.277Z,43.35
2022-12-03T07:19:33.434Z,38.85
2022-12-03T07:22:00.905Z,36.05
2022-12-03T07:24:28.149Z,43.88
2022-12-03T07:26:55.447Z,39.55
2022-12-03T07:29:22.464Z,43.08
2022-12-03T07:31:49.594Z,43.47
2022-12-03T07:34:16.584Z,36.47
2022-12-03T07:36:43.639Z,47.30
2022-12-03T07:39:10.774Z,38.58
2022-12-03T07:41:37.781Z,44.42
2022-12-03T07:44:09.131Z,45.85
2022-12-03T07:46:39.499Z,53.45
2022-12-03T07:49:06.410Z,46.20
2022-12-03T07:51:33.378Z,57.25
2022-12-03T07:54:00.305Z,45.38
2022-12-03T07:56:27.342Z,60.80
2022-12-03T07:58:54.543Z,49.40
2022-12-03T08:01:21.767Z,69.10
2022-12-03T08:03:48.686Z,57.65
2022-12-03T08:06:15.675Z,43.35
2022-12-03T08:08:43.778Z,40.28
2022-12-03T08:11:16.441Z,37.03
2022-12-03T08:13:43.498Z,34.53
2022-12-03T08:16:20.193Z,35.53
2022-12-03T08:18:48.702Z,31.75
2022-12-03T08:21:18.977Z,32.65
2022-12-03T08:23:46.133Z,29.45
2022-12-03T08:26:24.477Z,30.63
2022-12-03T08:28:52.712Z,32.28
2022-12-03T08:31:32.219Z,34.65
2022-12-03T08:34:17.140Z,33.05
2022-12-03T08:36:44.190Z,31.52
2022-12-03T08:39:29.174Z,31.65
2022-12-03T08:42:41.844Z,34.60
2022-12-03T08:45:40.451Z,31.27
2022-12-03T08:48:32.525Z,33.05
2022-12-03T08:51:03.540Z,35.83
2022-12-03T08:53:38.316Z,31.98
2022-12-03T08:56:13.859Z,32.38
2022-12-03T08:58:43.546Z,32.42
2022-12-03T09:01:10.673Z,32.08
2022-12-03T09:03:53.176Z,30.23
2022-12-03T09:06:20.436Z,31.67
2022-12-03T09:08:47.643Z,32.80
2022-12-03T09:11:14.999Z,37.42
2022-12-03T09:13:41.962Z,34.53
2022-12-03T09:16:09.049Z,31.35
2022-12-03T09:18:36.070Z,31.58
2022-12-03T09:21:03.039Z,33.55
2022-12-03T09:23:29.929Z,29.92
2022-12-03T09:25:56.987Z,32.67
2022-12-03T09:28:23.914Z,32.30
2022-12-03T09:30:50.908Z,30.27
2022-12-03T09:33:17.921Z,32.08
2022-12-03T09:35:44.924Z,29.52
2022-12-03T09:38:11.970Z,32.75
2022-12-03T09:40:40.967Z,29.10
2022-12-03T09:43:08.041Z,29.27
2022-12-03T09:45:35.164Z,30.67
2022-12-03T09:48:04.041Z,34.20
2022-12-03T09:50:32.030Z,32.92
2022-12-03T09:53:02.410Z,35.03
2022-12-03T09:55:30.512Z,34.08
2022-12-03T09:57:58.038Z,32.42
2022-12-03T10:00:28.133Z,37.50
2022-12-03T10:03:02.431Z,36.42
2022-12-03T10:05:30.017Z,35.38
2022-12-03T10:08:05.403Z,35.53
2022-12-03T10:10:34.163Z,36.03
2022-12-03T10:13:01.504Z,36.67
2022-12-03T10:15:28.479Z,38.40
2022-12-03T10:17:55.769Z,36.40
2022-12-03T10:20:37.939Z,32.75
2022-12-03T10:23:05.958Z,33.15
2022-12-03T10:25:34.788Z,34.33
2022-12-03T10:28:04.046Z,30.60
2022-12-03T10:30:31.345Z,32.92
2022-12-03T10:33:02.602Z,29.95
2022-12-03T10:35:41.403Z,35.58
2022-12-03T10:38:28.586Z,37.05
2022-12-03T10:40:55.580Z,33.70
2022-12-03T10:43:25.063Z,37.10
2022-12-03T10:46:11.210Z,32.83
2022-12-03T10:48:39.365Z,34.33
2022-12-03T10:51:18.309Z,39.72
2022-12-03T10:53:45.299Z,31.27
2022-12-03T10:56:17.855Z,32.50
2022-12-03T10:58:44.902Z,32.63
2022-12-03T11:01:20.406Z,31.23
2022-12-03T11:03:48.444Z,30.48
2022-12-03T11:06:20.039Z,42.10
2022-12-03T11:08:58.354Z,33.28
2022-12-03T11:11:28.002Z,32.47
2022-12-03T11:13:56.920Z,34.33
2022-12-03T11:16:42.039Z,28.38
2022-12-03T11:19:18.002Z,28.30
2022-12-03T11:22:03.550Z,30.98
2022-12-03T11:24:35.005Z,30.10
2022-12-03T11:27:01.898Z,28.58
2022-12-03T11:29:46.964Z,29.17
2022-12-03T11:32:52.791Z,28.92
2022-12-03T11:35:35.847Z,33.50
2022-12-03T11:38:38.226Z,26.90
2022-12-03T11:41:14.161Z,36.42
2022-12-03T11:43:53.350Z,28.85
2022-12-03T11:46:29.759Z,23.75
2022-12-03T11:48:59.820Z,47.72
2022-12-03T11:51:29.315Z,44.80
2022-12-03T11:53:58.791Z,41.13
2022-12-03T11:56:28.749Z,38.45
2022-12-03T11:59:02.231Z,36.85
2022-12-03T12:01:39.089Z,31.63
2022-12-03T12:04:08.411Z,31.42
2022-12-03T12:06:50.169Z,32.70
2022-12-03T12:09:50.726Z,26.77
2022-12-03T12:12:32.218Z,28.63
2022-12-03T12:14:59.811Z,28.48
2022-12-03T12:17:34.855Z,29.45
2022-12-03T12:20:13.234Z,26.88
2022-12-03T12:22:40.167Z,30.50
2022-12-03T12:25:37.138Z,34.33
2022-12-03T12:28:04.146Z,31.20
2022-12-03T12:30:31.060Z,29.40
2022-12-03T12:33:23.508Z,30.27
2022-12-03T12:35:51.235Z,28.45
2022-12-03T12:38:20.661Z,29.17
2022-12-03T12:40:50.613Z,37.58
2022-12-03T12:43:26.864Z,55.45
2022-12-03T12:45:56.992Z,123.40
2022-12-03T12:48:30.951Z,42.92
2022-12-03T12:51:13.795Z,51.10
2022-12-03T12:53:42.967Z,76.00
2022-12-03T12:56:30.361Z,72.63
2022-12-03T12:59:19.166Z,73.57
2022-12-03T13:01:48.689Z,63.85
2022-12-03T13:04:17.018Z,40.67
2022-12-03T13:06:45.315Z,55.55
2022-12-03T13:09:19.762Z,77.70
2022-12-03T13:11:58.016Z,50.50
2022-12-03T13:14:33.034Z,66.70
2022-12-03T13:17:02.005Z,44.58
2022-12-03T13:19:33.038Z,46.20
2022-12-03T13:22:19.248Z,37.20
2022-12-03T13:24:48.521Z,31.90
2022-12-03T13:27:18.256Z,36.78
2022-12-03T13:29:57.426Z,37.00
2022-12-03T13:32:31.746Z,31.60
2022-12-03T13:35:22.811Z,48.67
2022-12-03T13:37:50.106Z,27.67
2022-12-03T13:40:27.792Z,30.42
2022-12-03T13:42:55.156Z,29.90
2022-12-03T13:45:24.750Z,29.33
2022-12-03T13:48:04.160Z,33.53
2022-12-03T13:50:36.635Z,30.98
2022-12-03T13:53:26.403Z,32.60
2022-12-03T13:56:03.974Z,38.35
2022-12-03T13:58:30.974Z,34.78
2022-12-03T14:00:57.921Z,37.40
2022-12-03T14:03:24.947Z,34.05
2022-12-03T14:05:51.902Z,33.38
2022-12-03T14:08:18.876Z,37.28
2022-12-03T14:10:45.798Z,31.85
2022-12-03T14:13:12.876Z,45.85
2022-12-03T14:15:39.823Z,43.65
2022-12-03T14:18:06.751Z,46.35
2022-12-03T14:20:35.086Z,39.85
2022-12-03T14:23:02.115Z,38.53
2022-12-03T14:25:29.049Z,39.30
2022-12-03T14:27:56.154Z,38.17
2022-12-03T14:30:23.100Z,40.58
2022-12-03T14:32:50.064Z,36.85
2022-12-03T14:35:17.030Z,41.67
2022-12-03T14:37:45.164Z,42.15
2022-12-03T14:40:16.555Z,38.17
2022-12-03T14:42:46.734Z,35.67
2022-12-03T14:45:13.715Z,37.10
2022-12-03T14:47:40.673Z,36.30
2022-12-03T14:50:08.346Z,42.53
2022-12-03T14:52:35.269Z,40.75
2022-12-03T14:55:02.178Z,36.72
2022-12-03T14:57:29.940Z,35.97
2022-12-03T14:59:57.276Z,36.47
2022-12-03T15:02:24.502Z,33.53
2022-12-03T15:04:51.579Z,34.50
2022-12-03T15:07:18.547Z,35.03
2022-12-03T15:09:45.423Z,37.13
2022-12-03T15:12:12.436Z,32.08
2022-12-03T15:14:39.365Z,32.83
2022-12-03T15:17:06.411Z,33.33
2022-12-03T15:19:33.603Z,33.58
2022-12-03T15:22:00.542Z,30.63
2022-12-03T15:24:27.507Z,38.00
2022-12-03T15:26:54.555Z,34.10
2022-12-03T15:29:21.786Z,33.63
2022-12-03T15:31:48.836Z,35.92
2022-12-03T15:34:20.603Z,36.75
2022-12-03T15:36:49.694Z,38.05
2022-12-03T15:39:16.658Z,35.60
2022-12-03T15:41:43.619Z,32.83
2022-12-03T15:44:10.557Z,34.13
2022-12-03T15:46:37.587Z,35.55
2022-12-03T15:49:04.548Z,31.10
2022-12-03T15:51:31.597Z,33.28
2022-12-03T15:53:58.712Z,35.78
2022-12-03T15:56:25.810Z,39.67
2022-12-03T15:58:53.702Z,35.75
2022-12-03T16:01:20.923Z,29.85
2022-12-03T16:03:47.928Z,32.88
2022-12-03T16:06:14.926Z,31.67
2022-12-03T16:08:41.991Z,32.30
2022-12-03T16:11:09.137Z,29.30
2022-12-03T16:13:36.103Z,31.98
2022-12-03T16:16:03.216Z,28.08
2022-12-03T16:18:30.290Z,33.20
2022-12-03T16:20:57.293Z,33.78
2022-12-03T16:23:24.303Z,33.50
2022-12-03T16:25:51.320Z,33.75
2022-12-03T16:28:18.243Z,39.65
2022-12-03T16:30:45.264Z,36.47
2022-12-03T16:33:12.227Z,58.08
2022-12-03T16:35:39.180Z,99.25
2022-12-03T16:38:06.141Z,79.40
2022-12-03T16:40:33.072Z,40.60
2022-12-03T16:43:00.096Z,38.83
2022-12-03T16:45:50.987Z,32.53
2022-12-03T16:48:18.998Z,31.85
2022-12-03T16:50:45.980Z,33.45
2022-12-03T16:53:13.568Z,33.03
2022-12-03T16:55:40.943Z,31.80
2022-12-03T16:58:07.951Z,32.75
2022-12-03T17:00:35.186Z,34.45
2022-12-03T17:03:02.269Z,30.08
2022-12-03T17:05:29.354Z,34.58
2022-12-03T17:07:56.472Z,35.50
2022-12-03T17:10:23.475Z,33.08
2022-12-03T17:15:37.926Z,32.47
2022-12-03T17:18:05.071Z,31.10
2022-12-03T17:20:32.776Z,33.70
2022-12-03T17:23:00.433Z,37.38
2022-12-03T17:25:28.496Z,36.53
2022-12-03T17:27:55.420Z,36.65
2022-12-03T17:30:22.882Z,43.10
2022-12-03T17:32:50.515Z,36.80
2022-12-03T17:35:18.319Z,35.35
2022-12-03T17:37:45.590Z,35.00
2022-12-03T17:40:14.094Z,36.88
2022-12-03T17:42:41.034Z,32.90
2022-12-03T17:45:08.501Z,33.13
2022-12-03T17:47:35.426Z,35.05
2022-12-03T17:50:02.442Z,32.20
2022-12-03T17:52:29.427Z,35.22
2022-12-03T17:55:10.809Z,38.03
2022-12-03T17:57:39.093Z,37.55
2022-12-03T18:00:06.968Z,46.20
2022-12-03T18:02:39.142Z,37.58
2022-12-03T18:05:06.367Z,36.00
2022-12-03T18:07:33.376Z,40.38
2022-12-03T18:10:00.414Z,40.72
2022-12-03T18:12:27.367Z,36.63
2022-12-03T18:14:54.322Z,41.00
2022-12-03T18:17:21.262Z,42.20
2022-12-03T18:19:48.310Z,39.60
2022-12-03T18:22:15.478Z,36.75
2022-12-03T18:24:45.062Z,51.30
2022-12-03T18:27:13.350Z,37.80
2022-12-03T18:29:40.281Z,34.05
2022-12-03T18:32:27.225Z,37.17
2022-12-03T18:34:55.849Z,34.63
2022-12-03T18:37:25.790Z,37.28
2022-12-03T18:39:53.643Z,51.50
2022-12-03T18:42:23.818Z,54.67
2022-12-03T18:44:52.746Z,44.35
2022-12-03T18:47:22.300Z,38.80
2022-12-03T18:49:49.428Z,52.17
2022-12-03T18:52:19.211Z,39.33
2022-12-03T18:54:46.913Z,45.75
2022-12-03T18:57:14.291Z,42.78
2022-12-03T18:59:41.384Z,40.08
2022-12-03T19:02:10.962Z,49.78
2022-12-03T19:04:38.606Z,45.85
2022-12-03T19:07:05.601Z,39.67
2022-12-03T19:09:32.589Z,40.30
2022-12-03T19:11:59.571Z,42.28
2022-12-03T19:14:26.816Z,45.00
2022-12-03T19:16:53.776Z,40.97
2022-12-03T19:19:20.791Z,44.88
2022-12-03T19:21:48.398Z,42.60
2022-12-03T19:24:30.601Z,34.78
2022-12-03T19:26:57.671Z,43.63
2022-12-03T19:29:24.617Z,37.55
2022-12-03T19:31:52.355Z,35.83
2022-12-03T19:34:19.494Z,30.55
2022-12-03T19:36:47.505Z,32.67
2022-12-03T19:39:14.589Z,34.72
2022-12-03T19:41:43.722Z,39.67
2022-12-03T19:44:16.628Z,33.95
2022-12-03T19:46:44.331Z,37.95
2022-12-03T19:49:12.073Z,44.97
2022-12-03T19:51:39.115Z,34.42
2022-12-03T19:54:07.922Z,35.92
2022-12-03T19:56:35.395Z,61.13
2022-12-03T19:59:02.801Z,38.70
2022-12-03T20:01:32.620Z,37.33
2022-12-03T20:04:01.674Z,40.67
2022-12-03T20:06:30.852Z,45.00
2022-12-03T20:08:59.810Z,48.28
2022-12-03T20:11:29.898Z,42.70
2022-12-03T20:14:01.779Z,38.22
2022-12-03T20:16:30.009Z,34.75
2022-12-03T20:18:59.340Z,40.10
2022-12-03T20:21:26.787Z,38.72
2022-12-03T20:23:53.719Z,35.17
2022-12-03T20:26:21.902Z,36.72
2022-12-03T20:28:49.994Z,44.80
2022-12-03T20:31:19.629Z,41.17
2022-12-03T20:33:48.950Z,42.38
2022-12-03T20:36:17.913Z,49.85
2022-12-03T20:38:45.246Z,46.05
2022-12-03T20:41:17.203Z,40.50
2022-12-03T20:43:44.425Z,44.92
2022-12-03T20:46:15.042Z,42.42
2022-12-03T20:48:43.220Z,41.10
2022-12-03T20:51:12.990Z,41.38
2022-12-03T20:53:40.446Z,40.30
2022-12-03T20:56:08.220Z,36.85
2022-12-03T20:58:35.683Z,40.55
2022-12-03T21:01:15.867Z,39.30
2022-12-03T21:03:43.981Z,40.10
2022-12-03T21:06:11.667Z,36.65
2022-12-03T21:08:41.931Z,37.50
2022-12-03T21:11:11.194Z,37.28
2022-12-03T21:13:41.367Z,34.40
2022-12-03T21:16:14.185Z,49.90
2022-12-03T21:18:42.000Z,75.35
2022-12-03T21:21:11.638Z,48.28
2022-12-03T21:23:38.722Z,39.40
2022-12-03T21:26:10.070Z,39.05
2022-12-03T21:28:39.372Z,36.90
2022-12-03T21:31:09.006Z,36.85
2022-12-03T21:33:36.825Z,38.60
2022-12-03T21:36:04.891Z,37.13
2022-12-03T21:38:33.505Z,37.47
2022-12-03T21:41:01.250Z,37.20
2022-12-03T21:43:28.954Z,35.35
2022-12-03T21:45:56.007Z,35.92
2022-12-03T21:48:23.222Z,36.50
2022-12-03T21:51:09.877Z,36.20
2022-12-03T21:53:43.354Z,36.85
2022-12-03T21:56:13.886Z,34.55
2022-12-03T21:58:41.380Z,32.42
2022-12-03T22:01:17.572Z,37.25
2022-12-03T22:03:44.717Z,32.22
2022-12-03T22:06:13.927Z,33.25
2022-12-03T22:08:41.716Z,33.05
2022-12-03T22:11:13.962Z,32.05
2022-12-03T22:13:41.692Z,37.08
2022-12-03T22:16:11.576Z,35.30
2022-12-03T22:18:38.955Z,35.42
2022-12-03T22:21:07.699Z,39.13
2022-12-03T22:23:35.447Z,33.08
2022-12-03T22:26:05.107Z,33.33
2022-12-03T22:28:32.902Z,36.75
2022-12-03T22:31:00.241Z,34.42
2022-12-03T22:33:27.283Z,40.35
2022-12-03T22:35:58.877Z,31.73
2022-12-03T22:38:26.486Z,33.03
2022-12-03T22:40:53.427Z,33.78
2022-12-03T22:43:20.843Z,35.83
2022-12-03T22:45:47.915Z,36.70
2022-12-03T22:48:15.258Z,31.67
2022-12-03T22:50:44.716Z,31.20
2022-12-03T22:53:12.810Z,32.17
2022-12-03T22:55:40.401Z,33.03
2022-12-03T22:58:08.810Z,31.27
2022-12-03T23:00:41.139Z,33.97
2022-12-03T23:03:08.249Z,36.22
2022-12-03T23:05:39.087Z,33.97
2022-12-03T23:08:12.184Z,33.20
2022-12-03T23:10:41.898Z,34.38
2022-12-03T23:13:10.035Z,32.45
2022-12-03T23:15:37.241Z,32.83
2022-12-03T23:18:04.762Z,28.35
2022-12-03T23:20:31.735Z,32.28
2022-12-03T23:22:58.702Z,31.80
2022-12-03T23:25:25.677Z,33.72
2022-12-03T23:27:52.566Z,32.33
2022-12-03T23:30:19.589Z,29.67
2022-12-03T23:32:46.522Z,30.25
2022-12-03T23:35:13.526Z,30.52
2022-12-03T23:37:43.766Z,30.98
2022-12-03T23:40:12.092Z,32.40
2022-12-03T23:42:39.038Z,30.52
2022-12-03T23:45:06.543Z,32.17
2022-12-03T23:47:33.451Z,28.55
2022-12-03T23:50:00.405Z,28.42
2022-12-03T23:52:27.412Z,30.95
2022-12-03T23:54:54.355Z,28.38
2022-12-03T23:57:21.282Z,30.40
2022-12-03T23:59:49.023Z,31.35
